Time;durP1;ratioP1;P1;durP2;ratioP2;P2;SDS_P1;SDS_P2;PMS_P1;PMS_P2;Temp;Humidity;BMP_temperature;BMP_pressure;BME280_temperature;BME280_humidity;BME280_pressure;Samples;Min_cycle;Max_cycle;Signal;HPM_P1;HPM_P2
2022/04/03 00:01:20;;;;;;;0.20;0.20;;;3.30;99.90;2.80;102293.00;;;;5098339;28;20530;-69
2022/04/03 00:03:48;;;;;;;0.20;0.20;;;3.10;99.90;2.50;102302.00;;;;5115527;28;20267;-69
2022/04/03 00:06:20;;;;;;;0.20;0.20;;;2.90;99.90;2.50;102298.00;;;;5114294;28;20641;-69
2022/04/03 00:08:46;;;;;;;0.30;0.30;;;2.70;99.90;2.90;102289.00;;;;5114388;28;20164;-68
2022/04/03 00:11:12;;;;;;;0.20;0.20;;;2.70;99.90;3.00;102287.00;;;;5114958;28;20195;-69
2022/04/03 00:13:38;;;;;;;0.40;0.40;;;2.90;99.90;3.40;102286.00;;;;5097919;28;20516;-70
2022/04/03 00:16:06;;;;;;;0.20;0.20;;;3.10;99.90;3.00;102285.00;;;;5113313;28;20211;-67
2022/04/03 00:18:32;;;;;;;0.20;0.20;;;3.10;99.90;2.80;102284.00;;;;5097247;28;20180;-69
2022/04/03 00:21:00;;;;;;;0.20;0.20;;;3.00;99.90;2.70;102295.00;;;;5097341;28;20268;-68
2022/04/03 00:23:26;;;;;;;0.20;0.20;;;2.90;99.90;2.20;102298.00;;;;5097002;28;20303;-69
2022/04/03 00:25:55;;;;;;;0.30;0.30;;;2.60;99.90;2.40;102240.00;;;;5114641;28;20245;-67
2022/04/03 00:28:21;;;;;;;0.30;0.30;;;2.60;99.90;2.60;102226.00;;;;5113519;28;20184;-68
2022/04/03 00:30:47;;;;;;;0.30;0.30;;;2.60;99.90;2.40;102258.00;;;;5114432;28;20172;-68
2022/04/03 00:33:16;;;;;;;0.20;0.20;;;2.60;99.90;2.80;102276.00;;;;5114682;28;20195;-68
2022/04/03 00:35:42;;;;;;;0.30;0.30;;;2.70;99.90;3.20;102220.00;;;;5096921;28;20199;-68
2022/04/03 00:38:08;;;;;;;0.20;0.20;;;3.00;99.90;2.80;102265.00;;;;5113131;28;20176;-68
2022/04/03 00:40:34;;;;;;;0.30;0.30;;;3.00;99.90;2.70;102266.00;;;;5114460;28;20184;-68
2022/04/03 00:43:05;;;;;;;0.20;0.20;;;2.90;99.90;3.20;102287.00;;;;5113785;28;20267;-69
2022/04/03 00:45:31;;;;;;;0.20;0.20;;;3.00;99.90;3.00;102263.00;;;;5113546;28;20646;-69
2022/04/03 00:48:00;;;;;;;0.30;0.30;;;3.10;99.90;2.80;102272.00;;;;5113633;28;20210;-68
2022/04/03 00:50:26;;;;;;;0.27;0.27;;;3.00;99.90;2.70;102253.00;;;;5095494;28;20192;-69
2022/04/03 00:52:52;;;;;;;0.30;0.30;;;2.90;99.90;2.50;102262.00;;;;5113788;28;20210;-68
2022/04/03 00:55:18;;;;;;;0.20;0.20;;;2.80;99.90;2.10;102275.00;;;;5113494;28;20229;-70
2022/04/03 00:57:49;;;;;;;0.30;0.30;;;2.70;99.90;2.10;102261.00;;;;5112444;28;20637;-71
2022/04/03 01:00:15;;;;;;;0.30;0.30;;;2.50;99.90;2.20;102248.00;;;;5114035;28;20627;-70
2022/04/03 01:02:42;;;;;;;0.30;0.30;;;2.40;99.90;2.00;102261.00;;;;5113970;28;20184;-70
2022/04/03 01:05:09;;;;;;;0.40;0.40;;;2.20;99.90;1.50;102250.00;;;;5097017;28;20188;-70
2022/04/03 01:07:37;;;;;;;0.40;0.40;;;2.10;99.90;1.40;102264.00;;;;5112030;28;20184;-70
2022/04/03 01:10:03;;;;;;;0.40;0.40;;;1.90;99.90;1.70;102244.00;;;;5096818;28;20189;-70
2022/04/03 01:12:29;;;;;;;0.40;0.40;;;1.80;99.90;1.80;102253.00;;;;5113379;28;20207;-69
2022/04/03 01:14:55;;;;;;;0.40;0.40;;;1.80;99.90;1.60;102234.00;;;;5112791;28;20172;-68
2022/04/03 01:17:24;;;;;;;0.40;0.40;;;1.80;99.90;1.70;102220.00;;;;5112578;28;20211;-68
2022/04/03 01:19:50;;;;;;;0.50;0.50;;;1.80;99.90;1.40;102226.00;;;;5113623;28;20215;-68
2022/04/03 01:22:16;;;;;;;0.50;0.50;;;1.70;99.90;1.50;102200.00;;;;5112020;28;20191;-68
2022/04/03 01:24:43;;;;;;;0.50;0.50;;;1.70;99.90;0.80;102211.00;;;;5111400;28;20176;-67
2022/04/03 01:27:12;;;;;;;0.50;0.50;;;1.60;99.90;1.00;102214.00;;;;5113436;28;20179;-68
2022/04/03 01:29:38;;;;;;;0.57;0.57;;;1.40;99.90;1.10;102185.00;;;;5113672;28;20302;-68
2022/04/03 01:32:05;;;;;;;0.60;0.60;;;1.40;99.90;1.00;102194.00;;;;5113000;28;20331;-68
2022/04/03 01:34:31;;;;;;;0.63;0.63;;;1.40;99.90;1.10;102126.00;;;;5114721;28;20182;-68
2022/04/03 01:37:01;;;;;;;0.60;0.60;;;1.30;99.90;1.00;102195.00;;;;5094971;28;20180;-68
2022/04/03 01:39:27;;;;;;;0.60;0.60;;;1.30;99.90;1.20;102189.00;;;;5112611;28;20207;-68
2022/04/03 01:41:52;;;;;;;0.80;0.80;;;1.40;99.90;1.50;102201.00;;;;5095469;28;20211;-68
2022/04/03 01:44:21;;;;;;;0.80;0.80;;;1.50;99.90;1.70;102120.00;;;;5111197;28;20712;-68
2022/04/03 01:46:47;;;;;;;0.50;0.50;;;1.70;99.90;2.00;102205.00;;;;5112634;28;20630;-68
2022/04/03 01:49:13;;;;;;;0.93;0.93;;;2.10;99.90;1.60;102197.00;;;;5114241;28;20180;-68
2022/04/03 01:51:38;;;;;;;0.60;0.60;;;2.10;99.90;1.10;102181.00;;;;5112528;28;20192;-68
2022/04/03 01:54:04;;;;;;;0.60;0.60;;;1.90;99.90;1.30;102179.00;;;;5112676;28;20168;-68
2022/04/03 01:56:34;;;;;;;0.60;0.60;;;1.70;99.90;1.70;102178.00;;;;5114122;28;20203;-68
2022/04/03 01:59:04;;;;;;;0.70;0.70;;;1.90;99.90;1.60;102182.00;;;;5113966;28;20183;-68
2022/04/03 02:01:32;;;;;;;0.70;0.70;;;2.00;99.90;1.40;102182.00;;;;5112953;28;20604;-68
2022/04/03 02:03:58;;;;;;;0.70;0.70;;;1.70;99.90;1.50;102183.00;;;;5113075;28;20668;-69
2022/04/03 02:06:24;;;;;;;0.60;0.60;;;1.80;99.90;2.00;102189.00;;;;5112662;28;20183;-69
2022/04/03 02:08:51;;;;;;;0.60;0.60;;;2.10;99.90;1.90;102127.00;;;;5112346;28;20171;-68
2022/04/03 02:11:16;;;;;;;0.60;0.60;;;2.30;99.90;1.80;102189.00;;;;5113779;28;20215;-69
2022/04/03 02:13:42;;;;;;;0.70;0.70;;;2.20;99.90;1.70;102191.00;;;;5111472;28;20184;-69
2022/04/03 02:16:11;;;;;;;0.60;0.60;;;2.00;99.90;1.60;102189.00;;;;5112865;28;20191;-69
2022/04/03 02:18:38;;;;;;;0.60;0.60;;;2.00;99.90;1.80;102196.00;;;;5112726;28;20184;-69
2022/04/03 02:21:04;;;;;;;1.00;1.00;;;1.90;99.90;1.90;102200.00;;;;5112678;28;20183;-70
2022/04/03 02:23:30;;;;;;;0.83;0.83;;;2.10;99.90;2.10;102193.00;;;;5112540;28;20164;-68
2022/04/03 02:25:58;;;;;;;0.60;0.60;;;2.30;99.90;2.10;102187.00;;;;5111536;28;20199;-69
2022/04/03 02:28:24;;;;;;;0.50;0.50;;;2.40;99.90;2.00;102191.00;;;;5112910;28;20179;-70
2022/04/03 02:30:50;;;;;;;0.60;0.60;;;2.40;99.90;2.00;102186.00;;;;5111723;28;20175;-68
2022/04/03 02:33:19;;;;;;;0.90;0.90;;;2.30;99.90;1.80;102185.00;;;;5113682;28;20252;-69
2022/04/03 02:35:45;;;;;;;0.63;0.63;;;2.30;99.90;2.30;102187.00;;;;5111725;28;20186;-69
2022/04/03 02:38:11;;;;;;;1.20;1.20;;;2.40;99.90;2.70;102191.00;;;;5111993;28;20254;-68
2022/04/03 02:40:37;;;;;;;0.60;0.60;;;2.60;99.90;2.20;102182.00;;;;5111771;28;20176;-69
2022/04/03 02:43:03;;;;;;;0.70;0.70;;;2.50;99.90;1.80;102182.00;;;;5112523;28;20187;-68
2022/04/03 02:45:29;;;;;;;0.90;0.90;;;2.40;99.90;2.20;102161.00;;;;5111418;28;20267;-68
2022/04/03 02:47:56;;;;;;;0.70;0.70;;;2.40;99.90;1.80;102174.00;;;;5112315;28;20176;-68
2022/04/03 02:50:26;;;;;;;0.60;0.60;;;2.20;99.90;1.90;102162.00;;;;5112269;28;20255;-68
2022/04/03 02:52:55;;;;;;;0.70;0.70;;;2.10;99.90;1.80;102155.00;;;;5111965;28;20532;-68
2022/04/03 02:55:24;;;;;;;0.60;0.60;;;2.10;99.90;2.10;102166.00;;;;5095108;28;20611;-68
2022/04/03 02:57:50;;;;;;;1.40;1.27;;;2.30;99.90;2.00;102145.00;;;;5111503;28;20184;-68
2022/04/03 03:00:17;;;;;;;0.80;0.80;;;2.30;99.90;2.30;102157.00;;;;5112594;28;20183;-69
2022/04/03 03:02:47;;;;;;;0.93;0.93;;;2.60;99.90;2.30;102156.00;;;;5112320;28;20184;-69
2022/04/03 03:05:14;;;;;;;0.60;0.60;;;2.60;99.90;2.30;102151.00;;;;5111664;28;20176;-69
2022/04/03 03:07:46;;;;;;;0.70;0.70;;;2.60;99.90;2.20;102145.00;;;;5112487;28;20179;-68
2022/04/03 03:10:18;;;;;;;0.60;0.60;;;2.50;99.90;2.30;102158.00;;;;5094964;28;20187;-69
2022/04/03 03:12:47;;;;;;;0.60;0.60;;;2.60;99.90;2.40;102152.00;;;;5110296;28;20200;-68
2022/04/03 03:15:16;;;;;;;0.63;0.63;;;2.50;99.90;2.30;102159.00;;;;5111761;28;20694;-69
2022/04/03 03:17:43;;;;;;;0.70;0.70;;;2.60;99.90;2.60;102172.00;;;;5093962;28;20181;-68
2022/04/03 03:20:09;;;;;;;0.63;0.63;;;2.70;99.90;2.50;102180.00;;;;5116130;28;20627;-68
2022/04/03 03:22:36;;;;;;;0.80;0.80;;;2.60;99.90;2.30;102178.00;;;;5116701;28;20631;-68
2022/04/03 03:25:05;;;;;;;0.70;0.70;;;2.60;99.90;2.30;102183.00;;;;5114909;28;20206;-68
2022/04/03 03:27:31;;;;;;;0.70;0.70;;;2.50;99.90;2.30;102175.00;;;;5115961;28;20635;-68
2022/04/03 03:30:00;;;;;;;0.70;0.70;;;2.50;99.90;2.30;102176.00;;;;5098639;28;20179;-68
2022/04/03 03:32:26;;;;;;;0.70;0.70;;;2.50;99.90;2.30;102186.00;;;;5115259;28;20298;-68
2022/04/03 03:34:53;;;;;;;1.47;1.47;;;2.60;99.90;2.20;102181.00;;;;5115878;28;20260;-68
2022/04/03 03:37:18;;;;;;;0.70;0.70;;;2.60;99.90;2.50;102117.00;;;;5097733;28;20187;-68
2022/04/03 03:39:44;;;;;;;1.07;1.07;;;2.70;99.90;2.20;102175.00;;;;5113382;28;20172;-68
2022/04/03 03:42:14;;;;;;;0.63;0.63;;;2.60;99.90;1.90;102172.00;;;;5113451;28;20183;-68
2022/04/03 03:44:40;;;;;;;0.80;0.80;;;2.40;99.90;1.90;102102.00;;;;5097455;28;20176;-68
2022/04/03 03:47:07;;;;;;;0.80;0.80;;;2.30;99.90;2.40;102151.00;;;;5098753;28;20188;-68
2022/04/03 03:49:34;;;;;;;0.70;0.70;;;2.50;99.90;2.10;102165.00;;;;5115548;28;20619;-68
2022/04/03 03:52:00;;;;;;;0.70;0.70;;;2.40;99.90;2.50;102169.00;;;;5115267;28;20208;-68
2022/04/03 03:54:26;;;;;;;0.80;0.80;;;2.70;99.90;2.20;102113.00;;;;5098442;28;20180;-68
2022/04/03 03:56:54;;;;;;;0.70;0.70;;;2.60;99.90;2.00;102167.00;;;;5097539;28;20191;-68
2022/04/03 03:59:20;;;;;;;0.73;0.73;;;2.40;99.90;2.00;102103.00;;;;5115062;28;20176;-68
2022/04/03 04:01:46;;;;;;;1.10;1.10;;;2.30;99.90;2.40;102160.00;;;;5114090;28;20192;-68
2022/04/03 04:04:14;;;;;;;0.70;0.70;;;2.40;99.90;1.80;102160.00;;;;5115060;28;20176;-67
2022/04/03 04:06:41;;;;;;;0.70;0.70;;;2.40;99.90;2.00;102162.00;;;;5098416;28;20691;-68
2022/04/03 04:09:07;;;;;;;1.63;1.57;;;2.30;99.90;2.30;102165.00;;;;5115202;28;20188;-68
2022/04/03 04:11:34;;;;;;;1.13;1.13;;;2.40;99.90;2.40;102174.00;;;;5114487;28;20200;-68
2022/04/03 04:14:03;;;;;;;0.70;0.70;;;2.60;99.90;2.30;102117.00;;;;5114733;28;20809;-68
2022/04/03 04:16:29;;;;;;;0.53;0.53;;;2.60;99.90;2.10;102171.00;;;;5097973;28;20697;-68
2022/04/03 04:19:00;;;;;;;0.67;0.67;;;2.50;99.90;1.50;102157.00;;;;5115918;28;20172;-69
2022/04/03 04:21:25;;;;;;;0.60;0.60;;;2.30;99.90;1.70;102152.00;;;;5114642;28;20266;-69
2022/04/03 04:23:56;;;;;;;0.60;0.60;;;2.10;99.90;1.90;102169.00;;;;5114632;28;20279;-69
2022/04/03 04:26:25;;;;;;;0.70;0.70;;;2.20;99.90;1.80;102166.00;;;;5097265;28;20183;-70
2022/04/03 04:28:51;;;;;;;0.73;0.73;;;2.10;99.90;1.20;102163.00;;;;5114520;28;20200;-70
2022/04/03 04:31:18;;;;;;;0.70;0.70;;;1.90;99.90;1.20;102169.00;;;;5097381;28;20264;-70
2022/04/03 04:33:45;;;;;;;0.70;0.70;;;1.70;99.90;1.30;102164.00;;;;5114407;28;20188;-69
2022/04/03 04:36:11;;;;;;;0.60;0.60;;;1.70;99.90;0.80;102153.00;;;;5114512;28;20187;-69
2022/04/03 04:38:37;;;;;;;0.60;0.60;;;1.50;99.90;0.90;102161.00;;;;5114493;28;20176;-69
2022/04/03 04:41:04;;;;;;;0.60;0.60;;;1.40;99.90;1.10;102154.00;;;;5113932;28;20635;-69
2022/04/03 04:43:30;;;;;;;0.60;0.60;;;1.40;99.90;0.90;102162.00;;;;5113923;28;20176;-70
2022/04/03 04:45:56;;;;;;;0.60;0.60;;;1.40;99.90;1.10;102154.00;;;;5114178;28;20660;-71
2022/04/03 04:48:22;;;;;;;0.60;0.60;;;1.40;99.90;1.20;102148.00;;;;5080205;28;20189;-69
2022/04/03 04:50:49;;;;;;;0.60;0.60;;;1.50;99.90;0.80;102164.00;;;;5073820;28;20169;-68
2022/04/03 04:53:15;;;;;;;0.70;0.70;;;1.40;99.90;0.60;102159.00;;;;5073113;28;20247;-68
2022/04/03 04:55:42;;;;;;;0.60;0.60;;;1.20;99.90;0.90;102161.00;;;;5073470;28;20234;-69
2022/04/03 04:58:07;;;;;;;0.60;0.60;;;1.30;99.90;0.50;102145.00;;;;5073502;28;20174;-68
2022/04/03 05:00:33;;;;;;;0.70;0.70;;;1.20;99.90;1.00;102175.00;;;;5073601;28;20264;-68
2022/04/03 05:02:59;;;;;;;0.67;0.67;;;1.30;99.90;0.80;102179.00;;;;5072020;28;20260;-68
2022/04/03 05:05:27;;;;;;;0.70;0.70;;;1.30;99.90;0.80;102171.00;;;;5056809;28;20663;-68
2022/04/03 05:07:58;;;;;;;0.67;0.67;;;1.30;99.90;1.00;102183.00;;;;5073317;28;20581;-68
2022/04/03 05:10:25;;;;;;;0.60;0.60;;;1.30;99.90;0.40;102173.00;;;;5073228;28;20720;-69
2022/04/03 05:12:55;;;;;;;0.70;0.70;;;1.20;99.90;0.50;102173.00;;;;5072109;28;20201;-68
2022/04/03 05:15:22;;;;;;;0.60;0.60;;;1.00;99.90;0.50;102170.00;;;;5073085;28;20185;-68
2022/04/03 05:17:48;;;;;;;0.60;0.60;;;1.00;99.90;0.60;102175.00;;;;5049905;28;20729;-68
2022/04/03 05:20:15;;;;;;;0.50;0.50;;;1.20;99.90;1.00;102129.00;;;;5033249;28;20178;-68
2022/04/03 05:22:43;;;;;;;0.60;0.60;;;1.30;99.90;0.50;102175.00;;;;5032771;28;20595;-69
2022/04/03 05:25:13;;;;;;;0.60;0.60;;;1.10;99.90;0.90;102169.00;;;;5034535;28;20175;-68
2022/04/03 05:27:40;;;;;;;0.60;0.60;;;1.20;99.90;0.60;102178.00;;;;5031896;28;20182;-69
2022/04/03 05:30:08;;;;;;;0.60;0.60;;;1.10;99.90;0.60;102191.00;;;;5033987;28;20175;-69
2022/04/03 05:32:36;;;;;;;0.80;0.80;;;1.10;99.90;0.80;102171.00;;;;5032051;28;20218;-69
2022/04/03 05:35:03;;;;;;;0.60;0.60;;;1.20;99.90;0.60;102181.00;;;;5032997;28;20186;-69
2022/04/03 05:37:30;;;;;;;0.70;0.70;;;1.10;99.90;0.60;102167.00;;;;5033753;28;20175;-68
2022/04/03 05:39:56;;;;;;;0.60;0.60;;;1.20;99.90;0.90;102173.00;;;;5032764;28;20155;-68
2022/04/03 05:42:22;;;;;;;0.70;0.70;;;1.20;99.90;1.00;102163.00;;;;5015134;28;20197;-68
2022/04/03 05:44:48;;;;;;;0.60;0.60;;;1.30;99.90;1.10;102175.00;;;;5033448;28;20237;-68
2022/04/03 05:47:17;;;;;;;0.60;0.60;;;1.40;99.90;1.20;102171.00;;;;5032368;28;20183;-68
2022/04/03 05:49:45;;;;;;;0.60;0.60;;;1.50;99.90;0.90;102185.00;;;;5032639;28;20265;-69
2022/04/03 05:52:13;;;;;;;0.83;0.83;;;1.50;99.90;0.40;102165.00;;;;5032731;28;20206;-68
2022/04/03 05:54:39;;;;;;;0.50;0.50;;;1.30;99.90;0.80;102175.00;;;;5032783;28;20625;-69
2022/04/03 05:57:10;;;;;;;0.93;0.93;;;1.30;99.90;1.70;102178.00;;;;5031551;28;20237;-69
2022/04/03 05:59:36;;;;;;;0.50;0.50;;;1.80;99.90;2.30;102186.00;;;;5032026;28;20193;-69
2022/04/03 06:02:05;;;;;;;0.53;0.53;;;2.30;99.90;3.00;102189.00;;;;5032200;28;20182;-69
2022/04/03 06:04:31;;;;;;;1.13;1.13;;;3.00;99.90;3.40;102195.00;;;;5032328;28;20175;-69
2022/04/03 06:06:59;;;;;;;0.77;0.77;;;3.30;99.90;4.20;102199.00;;;;5032584;28;20178;-69
2022/04/03 06:09:25;;;;;;;0.40;0.40;;;4.00;99.90;4.80;102205.00;;;;5032100;28;20270;-70
2022/04/03 06:11:56;;;;;;;0.30;0.30;;;4.70;99.90;5.70;102220.00;;;;5032252;28;20277;-70
2022/04/03 06:14:22;;;;;;;0.40;0.40;;;5.30;99.90;7.00;102258.00;;;;5033699;28;20186;-70
2022/04/03 06:16:50;;;;;;;0.20;0.20;;;6.40;99.90;8.70;102273.00;;;;5031705;28;20184;-71
2022/04/03 06:19:16;;;;;;;1.00;1.00;;;7.70;99.90;10.20;102271.00;;;;5033733;28;20528;-71
2022/04/03 06:21:42;;;;;;;0.70;0.70;;;9.10;99.90;11.60;102315.00;;;;5031829;28;20265;-71
2022/04/03 06:24:08;;;;;;;2.63;2.53;;;10.40;99.90;12.50;102405.00;;;;5033344;28;20179;-71
2022/04/03 06:26:34;;;;;;;0.50;0.50;;;11.50;99.90;13.10;102325.00;;;;5033171;28;20230;-72
2022/04/03 06:28:59;;;;;;;0.13;0.13;;;12.30;99.90;13.90;102317.00;;;;5031977;28;20183;-72
2022/04/03 06:31:25;;;;;;;0.10;0.10;;;13.00;99.90;14.70;102312.00;;;;5031604;28;20201;-72
2022/04/03 06:33:51;;;;;;;0.10;0.10;;;13.70;99.90;15.10;102320.00;;;;5032461;28;20199;-72
2022/04/03 06:36:17;;;;;;;0.40;0.40;;;14.40;99.90;15.60;102308.00;;;;5033246;28;20191;-71
2022/04/03 06:38:45;;;;;;;0.10;0.10;;;14.90;99.90;15.60;102284.00;;;;5031962;28;20209;-71
2022/04/03 06:41:11;;;;;;;0.47;0.47;;;15.20;99.90;15.90;102313.00;;;;5033000;28;20175;-71
2022/04/03 06:43:38;;;;;;;0.20;0.20;;;15.50;98.80;16.00;102305.00;;;;5032096;28;20272;-72
2022/04/03 06:46:04;;;;;;;1.80;1.70;;;15.70;98.90;16.50;102270.00;;;;5032407;28;20273;-72
2022/04/03 06:48:30;;;;;;;0.63;0.63;;;16.00;97.90;16.60;102303.00;;;;5031027;28;20598;-72
2022/04/03 06:50:56;;;;;;;0.60;0.60;;;16.30;97.00;17.30;102299.00;;;;5030179;28;20196;-70
2022/04/03 06:53:22;;;;;;;0.10;0.10;;;16.80;96.40;17.70;102266.00;;;;5033055;28;20192;-68
2022/04/03 06:55:51;;;;;;;0.10;0.10;;;17.10;95.30;17.90;102318.00;;;;5019785;28;20197;-68
2022/04/03 06:58:16;;;;;;;0.22;0.22;;;17.50;93.90;18.70;102309.00;;;;5035341;28;20273;-68
2022/04/03 07:00:42;;;;;;;0.20;0.20;;;17.80;93.40;19.00;102307.00;;;;5035298;28;20258;-68
2022/04/03 07:03:08;;;;;;;0.40;0.40;;;18.30;93.10;19.60;102311.00;;;;5018355;28;20264;-68
2022/04/03 07:05:37;;;;;;;0.50;0.50;;;18.80;92.10;19.70;102301.00;;;;5019139;28;20193;-70
2022/04/03 07:08:06;;;;;;;0.10;0.10;;;19.10;90.20;18.80;102318.00;;;;5019101;28;20202;-70
2022/04/03 07:10:31;;;;;;;0.40;0.40;;;18.70;88.70;13.60;102307.00;;;;5034874;28;20159;-70
2022/04/03 07:12:59;;;;;;;0.67;0.67;;;15.50;90.60;12.80;102349.00;;;;5018754;28;20311;-71
2022/04/03 07:15:25;;;;;;;0.10;0.10;;;13.80;93.40;15.30;102331.00;;;;5035349;28;20284;-70
2022/04/03 07:17:51;;;;;;;0.10;0.10;;;14.40;94.60;15.70;102332.00;;;;5035682;28;20171;-70
2022/04/03 07:20:17;;;;;;;0.32;0.32;;;14.90;94.60;16.60;102345.00;;;;5035329;28;20607;-69
2022/04/03 07:22:44;;;;;;;0.47;0.47;;;15.60;94.50;14.30;102355.00;;;;5035469;28;20260;-69
2022/04/03 07:25:11;;;;;;;0.47;0.47;;;15.70;91.70;11.30;102362.00;;;;5018220;28;20522;-69
2022/04/03 07:27:38;;;;;;;0.20;0.20;;;12.40;95.50;13.80;102353.00;;;;5018415;28;20178;-70
2022/04/03 07:30:06;;;;;;;0.10;0.10;;;13.10;96.90;15.40;102310.00;;;;5018918;28;20181;-70
2022/04/03 07:32:32;;;;;;;0.10;0.10;;;14.30;96.60;14.30;102324.00;;;;5035436;28;20218;-70
2022/04/03 07:34:58;;;;;;;0.10;0.10;;;14.40;95.50;15.20;102347.00;;;;5018003;28;20628;-72
2022/04/03 07:37:24;;;;;;;0.10;0.10;;;14.60;94.70;16.60;102345.00;;;;5035054;28;20740;-71
2022/04/03 07:39:51;;;;;;;0.50;0.50;;;15.60;94.40;17.50;102296.00;;;;5035308;28;20209;-70
2022/04/03 07:42:18;;;;;;;2.20;1.20;;;16.60;92.90;12.70;102371.00;;;;5033816;28;20366;-71
2022/04/03 07:44:44;;;;;;;4.17;1.17;;;14.50;92.70;8.80;102394.00;;;;5035404;28;20209;-72
2022/04/03 07:47:11;;;;;;;0.43;0.43;;;11.00;97.00;7.40;102387.00;;;;5034998;28;20190;-71
2022/04/03 07:49:37;;;;;;;1.13;1.03;;;9.00;99.90;8.50;102391.00;;;;5034091;28;20192;-71
2022/04/03 07:52:04;;;;;;;0.13;0.13;;;8.80;99.90;11.30;102388.00;;;;5018432;28;20184;-72
2022/04/03 07:54:32;;;;;;;0.10;0.10;;;10.30;99.90;12.70;102394.00;;;;5017137;28;20199;-68
2022/04/03 07:56:58;;;;;;;0.10;0.10;;;11.80;99.90;14.60;102371.00;;;;5035985;28;20498;-69
2022/04/03 07:59:27;;;;;;;0.10;0.10;;;13.30;99.90;14.30;102382.00;;;;5034061;28;20183;-71
2022/04/03 08:01:52;;;;;;;0.10;0.10;;;13.90;99.90;15.30;102371.00;;;;5033690;28;20211;-70
2022/04/03 08:04:18;;;;;;;1.40;1.40;;;14.60;99.90;15.40;102354.00;;;;5034037;28;20175;-70
2022/04/03 08:06:44;;;;;;;0.30;0.30;;;15.10;99.80;16.60;102353.00;;;;5017006;28;20870;-71
2022/04/03 08:09:12;;;;;;;0.10;0.10;;;15.70;98.30;16.40;102352.00;;;;5017516;28;20704;-70
2022/04/03 08:11:40;;;;;;;0.10;0.10;;;16.20;96.20;17.20;102327.00;;;;5036108;28;20192;-71
2022/04/03 08:14:06;;;;;;;0.10;0.10;;;16.50;95.20;16.40;102354.00;;;;5049861;28;20192;-71
2022/04/03 08:16:36;;;;;;;0.73;0.40;;;16.40;94.00;16.50;102320.00;;;;5054269;28;20184;-71
2022/04/03 08:19:06;;;;;;;0.10;0.10;;;16.30;93.60;15.00;102332.00;;;;5033283;28;20192;-71
2022/04/03 08:21:32;;;;;;;0.20;0.20;;;15.80;93.80;15.30;102366.00;;;;5017808;28;20232;-70
2022/04/03 08:23:58;;;;;;;0.10;0.10;;;15.40;94.50;13.80;102392.00;;;;5034577;28;20169;-70
2022/04/03 08:26:27;;;;;;;0.10;0.10;;;14.80;94.10;15.30;102382.00;;;;5034074;28;20643;-70
2022/04/03 08:28:53;;;;;;;0.10;0.10;;;14.80;95.20;14.90;102394.00;;;;5018099;28;20190;-70
2022/04/03 08:31:23;;;;;;;0.20;0.20;;;14.90;94.60;15.40;102384.00;;;;5034299;28;20172;-70
2022/04/03 08:33:51;;;;;;;0.10;0.10;;;15.10;95.20;15.90;102383.00;;;;5017415;28;20186;-71
2022/04/03 08:36:17;;;;;;;0.10;0.10;;;15.40;94.90;15.60;102386.00;;;;5033335;28;20178;-71
2022/04/03 08:38:43;;;;;;;0.10;0.10;;;15.50;94.40;12.50;102409.00;;;;5017349;28;20187;-70
2022/04/03 08:41:10;;;;;;;1.73;0.80;;;14.10;94.50;11.80;102415.00;;;;5034056;28;20180;-71
2022/04/03 08:43:36;;;;;;;0.10;0.10;;;12.60;96.70;11.90;102424.00;;;;5033444;28;20197;-71
2022/04/03 08:46:07;;;;;;;0.10;0.10;;;12.00;98.30;11.70;102433.00;;;;5032878;28;20726;-71
2022/04/03 08:48:33;;;;;;;3.53;0.53;;;11.90;98.60;12.80;102398.00;;;;5035020;28;20541;-71
2022/04/03 08:51:04;;;;;;;1.63;0.73;;;12.60;98.30;13.30;102416.00;;;;5017109;28;20179;-71
2022/04/03 08:53:32;;;;;;;0.30;0.30;;;13.10;97.40;13.70;102367.00;;;;5033854;28;20628;-71
2022/04/03 08:55:59;;;;;;;0.57;0.57;;;13.30;96.70;13.40;102423.00;;;;5033717;28;20195;-71
2022/04/03 08:58:27;;;;;;;0.10;0.10;;;13.30;96.50;13.60;102423.00;;;;5016805;28;20188;-71
2022/04/03 09:00:55;;;;;;;0.10;0.10;;;13.60;96.20;13.80;102412.00;;;;5016464;28;20628;-70
2022/04/03 09:03:21;;;;;;;0.30;0.30;;;13.70;96.20;14.30;102407.00;;;;5032858;28;20296;-71
2022/04/03 09:05:49;;;;;;;0.20;0.20;;;14.10;95.70;14.20;102396.00;;;;5033757;28;20331;-71
2022/04/03 09:08:15;;;;;;;0.10;0.10;;;14.20;95.30;13.70;102408.00;;;;5034024;28;20255;-71
2022/04/03 09:11:04;;;;;;;0.60;0.30;;;14.10;95.50;13.30;102406.00;;;;5033021;28;20641;-71
2022/04/03 09:13:31;;;;;;;0.20;0.20;;;13.60;95.80;11.30;102377.00;;;;5033264;28;20271;-70
2022/04/03 09:15:57;;;;;;;1.67;1.30;;;12.70;95.70;7.90;102464.00;;;;5016314;28;20176;-62
2022/04/03 09:18:24;;;;;;;0.20;0.20;;;9.80;99.90;10.20;102434.00;;;;5034812;28;20646;-68
2022/04/03 09:20:50;;;;;;;0.50;0.50;;;10.10;99.90;10.00;102429.00;;;;5033433;28;20169;-69
2022/04/03 09:23:17;;;;;;;0.10;0.10;;;10.70;99.90;9.40;102428.00;;;;5032927;28;20204;-69
2022/04/03 09:25:44;;;;;;;0.30;0.30;;;9.80;99.90;10.90;102428.00;;;;5033212;28;20181;-69
2022/04/03 09:28:14;;;;;;;0.10;0.10;;;10.60;99.90;11.80;102421.00;;;;5031612;28;20620;-70
2022/04/03 09:30:49;;;;;;;1.07;0.97;;;11.40;99.90;12.80;102420.00;;;;5042849;28;20187;-69
2022/04/03 09:33:20;;;;;;;0.20;0.20;;;12.30;99.90;12.60;102404.00;;;;5052841;28;20202;-70
2022/04/03 09:35:57;;;;;;;0.50;0.50;;;12.40;99.10;10.50;102416.00;;;;5052945;28;20275;-70
2022/04/03 09:38:28;;;;;;;0.10;0.10;;;12.10;97.70;11.50;102349.00;;;;5053614;28;20176;-70
2022/04/03 09:40:56;;;;;;;0.30;0.30;;;11.90;98.70;10.30;102412.00;;;;5052894;28;20183;-70
2022/04/03 09:43:25;;;;;;;0.30;0.30;;;11.30;95.40;10.50;102399.00;;;;5052219;28;20647;-70
2022/04/03 09:45:54;;;;;;;0.20;0.20;;;11.20;95.20;11.70;102389.00;;;;5052659;28;20293;-70
2022/04/03 09:48:30;;;;;;;0.40;0.40;;;11.60;95.20;11.80;102365.00;;;;5052435;28;20185;-70
2022/04/03 09:51:09;;;;;;;0.23;0.23;;;12.00;94.30;11.20;102390.00;;;;5054104;28;20189;-69
2022/04/03 09:53:44;;;;;;;0.20;0.20;;;11.40;94.20;12.20;102336.00;;;;5052366;28;20262;-71
2022/04/03 09:56:13;;;;;;;0.40;0.40;;;12.00;93.60;12.00;102355.00;;;;5052664;28;20178;-69
2022/04/03 09:58:51;;;;;;;0.20;0.20;;;12.30;92.10;12.10;102369.00;;;;5052325;28;20187;-69
2022/04/03 10:01:29;;;;;;;0.20;0.20;;;12.30;91.00;12.10;102365.00;;;;5068978;28;20183;-70
2022/04/03 10:04:01;;;;;;;0.10;0.10;;;12.40;91.40;12.80;102346.00;;;;5052395;28;20164;-70
2022/04/03 10:06:28;;;;;;;0.10;0.10;;;12.70;92.50;12.60;102359.00;;;;5052538;28;20195;-71
2022/04/03 10:08:54;;;;;;;0.20;0.20;;;13.00;92.00;14.00;102349.00;;;;5052004;28;20178;-70
2022/04/03 10:11:22;;;;;;;0.10;0.10;;;13.70;92.00;14.90;102351.00;;;;5052263;28;20636;-71
2022/04/03 10:13:49;;;;;;;4.63;0.43;;;14.40;91.70;15.00;102332.00;;;;5052012;28;20190;-70
2022/04/03 10:16:18;;;;;;;0.70;0.70;;;14.70;91.50;12.80;102355.00;;;;5035593;28;20539;-64
2022/04/03 10:18:45;;;;;;;0.20;0.20;;;13.60;91.20;12.80;102351.00;;;;5053107;28;20180;-69
2022/04/03 10:33:21;;;;;;;0.80;0.80;;;10.70;92.60;11.10;102318.00;;;;5113550;27;1314179;-69
2022/04/03 10:36:08;;;;;;;1.93;1.23;;;11.00;94.30;12.20;102357.00;;;;5115126;28;20183;-66
2022/04/03 10:38:35;;;;;;;0.10;0.10;;;11.90;94.80;13.10;102305.00;;;;5130483;28;20204;-67
2022/04/03 10:41:01;;;;;;;0.10;0.10;;;12.70;93.80;12.80;102343.00;;;;5131594;27;20225;-67
2022/04/03 10:43:31;;;;;;;0.17;0.17;;;12.60;93.10;12.80;102332.00;;;;5129603;28;20753;-65
2022/04/03 10:45:57;;;;;;;0.10;0.10;;;12.70;92.20;12.20;102338.00;;;;5131853;27;20181;-65
2022/04/03 10:48:31;;;;;;;0.40;0.40;;;12.30;92.30;12.20;102339.00;;;;5111859;28;20173;-66
2022/04/03 10:51:23;;;;;;;0.10;0.10;;;12.10;91.80;12.10;102336.00;;;;5129897;28;20632;-66
2022/04/03 10:53:58;;;;;;;0.47;0.47;;;12.00;91.90;12.10;102327.00;;;;5129954;28;20581;-66
2022/04/03 10:56:30;;;;;;;0.20;0.20;;;11.90;91.90;10.60;102328.00;;;;5119412;28;20634;-65
2022/04/03 10:58:57;;;;;;;0.63;0.63;;;11.50;91.50;11.30;102334.00;;;;5120460;28;20188;-65
2022/04/03 11:01:34;;;;;;;0.10;0.10;;;11.40;91.90;12.20;102330.00;;;;5109521;28;20229;-65
2022/04/03 11:04:21;;;;;;;0.40;0.40;;;11.70;92.30;10.50;102298.00;;;;5110563;28;20544;-65
2022/04/03 11:06:50;;;;;;;0.50;0.50;;;11.40;90.60;10.10;102315.00;;;;5108761;28;20631;-66
2022/04/03 11:09:24;;;;;;;0.20;0.20;;;10.50;91.90;10.30;102331.00;;;;5109271;28;20222;-66